createdAt,value
2018-04-11T00:00:59.281Z,85.60
2018-04-11T00:01:59.278Z,85.21
2018-04-11T00:02:59.287Z,85.21
2018-04-11T00:03:59.295Z,85.41
2018-04-11T00:04:59.298Z,85.41
2018-04-11T00:05:59.301Z,85.94
2018-04-11T00:06:59.313Z,85.75
2018-04-11T00:07:59.325Z,86.32
2018-04-11T00:08:59.372Z,86.51
2018-04-11T00:09:59.310Z,86.51
2018-04-11T00:10:59.333Z,86.22
2018-04-11T00:11:59.322Z,87.18
2018-04-11T00:12:59.332Z,86.22
2018-04-11T00:13:59.331Z,86.51
2018-04-11T00:14:59.329Z,86.32
2018-04-11T00:15:59.330Z,86.80
2018-04-11T00:16:59.333Z,86.51
2018-04-11T00:17:59.347Z,86.90
2018-04-11T00:18:59.356Z,86.70
2018-04-11T00:19:59.355Z,86.61
2018-04-11T00:20:59.353Z,86.04
2018-04-11T00:21:59.344Z,85.79
2018-04-11T00:22:59.361Z,86.17
2018-04-11T00:23:59.374Z,85.88
2018-04-11T00:24:59.360Z,86.74
2018-04-11T00:25:59.368Z,85.98
2018-04-11T00:26:59.399Z,85.88
2018-04-11T00:27:59.378Z,86.55
2018-04-11T00:28:59.385Z,86.65
2018-04-11T00:29:59.384Z,86.65
2018-04-11T00:30:59.388Z,86.65
2018-04-11T00:31:59.456Z,86.36
2018-04-11T00:32:59.385Z,85.88
2018-04-11T00:33:59.392Z,85.98
2018-04-11T00:34:59.391Z,86.02
2018-04-11T00:35:59.397Z,86.27
2018-04-11T00:36:59.398Z,85.98
2018-04-11T00:37:59.403Z,86.55
2018-04-11T00:38:59.398Z,86.65
2018-04-11T00:39:59.406Z,86.74
2018-04-11T00:40:59.403Z,86.46
2018-04-11T00:41:59.411Z,86.55
2018-04-11T00:42:59.428Z,87.03
2018-04-11T00:43:59.432Z,87.32
2018-04-11T00:44:59.435Z,86.94
2018-04-11T00:45:59.426Z,87.61
2018-04-11T00:46:59.428Z,87.61
2018-04-11T00:47:59.441Z,87.70
2018-04-11T00:49:00.397Z,88.18
2018-04-11T00:49:59.451Z,87.80
2018-04-11T00:50:59.466Z,87.90
2018-04-11T00:51:59.453Z,88.76
2018-04-11T00:52:59.526Z,88.85
2018-04-11T00:53:59.483Z,88.66
2018-04-11T00:54:59.467Z,89.09
2018-04-11T00:55:59.465Z,89.00
2018-04-11T00:56:59.465Z,89.29
2018-04-11T00:57:59.467Z,89.48
2018-04-11T00:58:59.473Z,89.00
2018-04-11T00:59:59.469Z,89.09
2018-04-11T01:00:59.482Z,89.19
2018-04-11T01:01:59.490Z,89.58
2018-04-11T01:02:59.487Z,89.48
2018-04-11T01:03:59.496Z,89.48
2018-04-11T01:04:59.483Z,89.67
2018-04-11T01:05:59.494Z,90.34
2018-04-11T01:06:59.498Z,90.34
2018-04-11T01:07:59.510Z,90.24
2018-04-11T01:08:59.508Z,90.24
2018-04-11T01:09:59.501Z,89.95
2018-04-11T01:10:59.513Z,90.30
2018-04-11T01:11:59.535Z,90.20
2018-04-11T01:12:59.553Z,90.10
2018-04-11T01:13:59.536Z,89.91
2018-04-11T01:14:59.523Z,90.01
2018-04-11T01:15:59.535Z,90.58
2018-04-11T01:16:59.529Z,90.10
2018-04-11T01:17:59.532Z,89.91
2018-04-11T01:18:59.537Z,90.77
2018-04-11T01:19:59.558Z,90.10
2018-04-11T01:20:59.543Z,90.01
2018-04-11T01:21:59.547Z,90.30
2018-04-11T01:22:59.555Z,90.39
2018-04-11T01:23:59.543Z,90.48
2018-04-11T01:24:59.569Z,90.10
2018-04-11T01:25:59.571Z,90.48
2018-04-11T01:26:59.564Z,90.10
2018-04-11T01:27:59.555Z,90.10
2018-04-11T01:28:59.575Z,90.58
2018-04-11T01:29:59.569Z,90.39
2018-04-11T01:30:59.567Z,90.48
2018-04-11T01:31:59.577Z,90.39
2018-04-11T01:32:59.581Z,90.87
2018-04-11T01:33:59.591Z,90.96
2018-04-11T01:34:59.587Z,91.16
2018-04-11T01:35:59.595Z,91.06
2018-04-11T01:36:59.590Z,90.96
2018-04-11T01:37:59.598Z,91.16
2018-04-11T01:38:59.610Z,90.48
2018-04-11T01:39:59.600Z,90.73
2018-04-11T01:40:59.596Z,90.67
2018-04-11T01:41:59.625Z,90.25
2018-04-11T01:42:59.673Z,91.02
2018-04-11T01:43:59.605Z,91.20
2018-04-11T01:44:59.653Z,90.82
2018-04-11T01:45:59.623Z,91.39
2018-04-11T01:46:59.630Z,91.02
2018-04-11T01:47:59.630Z,91.02
2018-04-11T01:48:59.631Z,91.02
2018-04-11T01:49:59.629Z,91.02
2018-04-11T01:50:59.638Z,91.20
2018-04-11T01:51:59.635Z,91.68
2018-04-11T01:52:59.641Z,90.92
2018-04-11T01:53:59.648Z,91.11
2018-04-11T01:54:59.635Z,91.30
2018-04-11T01:55:59.661Z,91.20
2018-04-11T01:56:59.651Z,91.02
2018-04-11T01:57:59.666Z,91.11
2018-04-11T01:58:59.670Z,91.39
2018-04-11T01:59:59.664Z,91.11
2018-04-11T02:00:59.660Z,91.88
2018-04-11T02:01:59.662Z,91.88
2018-04-11T02:02:59.666Z,90.82
2018-04-11T02:03:59.676Z,91.88
2018-04-11T02:04:59.666Z,91.02
2018-04-11T02:05:59.679Z,91.20
2018-04-11T02:06:59.676Z,91.06
2018-04-11T02:07:59.689Z,91.16
2018-04-11T02:08:59.696Z,91.97
2018-04-11T02:09:59.702Z,91.78
2018-04-11T02:10:59.703Z,91.83
2018-04-11T02:11:59.695Z,92.07
2018-04-11T02:12:59.720Z,91.97
2018-04-11T02:13:59.707Z,91.68
2018-04-11T02:14:59.699Z,91.83
2018-04-11T02:15:59.702Z,91.35
2018-04-11T02:16:59.719Z,91.83
2018-04-11T02:17:59.719Z,91.54
2018-04-11T02:18:59.720Z,91.54
2018-04-11T02:19:59.715Z,92.40
2018-04-11T02:20:59.735Z,92.21
2018-04-11T02:21:59.735Z,92.02
2018-04-11T02:22:59.723Z,92.11
2018-04-11T02:23:59.729Z,92.50
2018-04-11T02:25:00.426Z,92.21
2018-04-11T02:25:59.731Z,92.11
2018-04-11T02:26:59.751Z,92.69
2018-04-11T02:27:59.746Z,92.21
2018-04-11T02:28:59.742Z,92.21
2018-04-11T02:29:59.745Z,92.11
2018-04-11T02:30:59.806Z,92.21
2018-04-11T02:31:59.774Z,92.21
2018-04-11T02:32:59.764Z,92.88
2018-04-11T02:33:59.757Z,92.88
2018-04-11T02:35:00.426Z,92.30
2018-04-11T02:35:59.768Z,93.16
2018-04-11T02:36:59.788Z,92.97
2018-04-11T02:37:59.765Z,92.97
2018-04-11T02:38:59.768Z,92.97
2018-04-11T02:39:59.788Z,92.97
2018-04-11T02:40:59.785Z,93.07
2018-04-11T02:41:59.784Z,92.16
2018-04-11T02:42:59.789Z,93.31
2018-04-11T02:43:59.794Z,92.93
2018-04-11T02:44:59.787Z,92.93
2018-04-11T02:45:59.799Z,93.12
2018-04-11T02:46:59.824Z,93.41
2018-04-11T02:47:59.816Z,93.50
2018-04-11T02:48:59.814Z,93.02
2018-04-11T02:49:59.801Z,93.02
2018-04-11T02:50:59.800Z,93.12
2018-04-11T02:51:59.807Z,92.83
2018-04-11T02:52:59.834Z,93.12
2018-04-11T02:53:59.907Z,92.93
2018-04-11T02:54:59.813Z,93.21
2018-04-11T02:55:59.811Z,93.31
2018-04-11T02:56:59.827Z,93.50
2018-04-11T02:57:59.840Z,93.41
2018-04-11T02:58:59.834Z,93.21
2018-04-11T02:59:59.830Z,93.41
2018-04-11T03:00:59.830Z,93.31
2018-04-11T03:01:59.839Z,93.98
2018-04-11T03:02:59.871Z,94.22
2018-04-11T03:03:59.846Z,93.65
2018-04-11T03:04:59.845Z,93.93
2018-04-11T03:05:59.839Z,94.31
2018-04-11T03:06:59.849Z,94.41
2018-04-11T03:07:59.852Z,94.79
2018-04-11T03:08:59.852Z,94.70
2018-04-11T03:09:59.858Z,94.22
2018-04-11T03:10:59.861Z,94.70
2018-04-11T03:11:59.872Z,94.98
2018-04-11T03:12:59.870Z,94.79
2018-04-11T03:13:59.875Z,94.79
2018-04-11T03:14:59.905Z,94.60
2018-04-11T03:15:59.873Z,94.60
2018-04-11T03:16:59.884Z,94.60
2018-04-11T03:17:59.882Z,94.89
2018-04-11T03:18:59.902Z,94.60
2018-04-11T03:19:59.879Z,94.70
2018-04-11T03:20:59.927Z,94.12
2018-04-11T03:21:59.898Z,93.55
2018-04-11T03:22:59.887Z,94.12
2018-04-11T03:24:35.512Z,94.51
2018-04-11T03:26:34.497Z,94.51
2018-04-11T03:28:08.495Z,94.12
2018-04-11T03:28:32.010Z,94.12
2018-04-11T03:29:32.011Z,93.74
2018-04-11T03:32:11.714Z,93.93
2018-04-11T03:46:59.789Z,94.46
2018-04-11T03:47:59.761Z,94.56
2018-04-11T03:49:00.252Z,94.84
2018-04-11T03:50:01.291Z,94.65
2018-04-11T03:51:06.756Z,95.12
2018-04-11T03:52:05.246Z,94.27
2018-04-11T03:52:59.796Z,94.93
2018-04-11T03:53:59.761Z,94.56
2018-04-11T03:54:59.780Z,95.12
2018-04-11T03:55:59.776Z,94.46
2018-04-11T03:57:59.773Z,94.65
2018-04-11T03:59:59.776Z,94.56
2018-04-11T04:02:31.935Z,94.46
2018-04-11T04:03:31.898Z,95.03
2018-04-11T04:04:31.907Z,94.07
2018-04-11T04:05:31.921Z,94.27
2018-04-11T04:06:31.898Z,94.60
2018-04-11T04:07:31.905Z,94.36
2018-04-11T04:08:31.896Z,94.65
2018-04-11T04:09:31.905Z,94.74
2018-04-11T04:10:31.910Z,94.65
2018-04-11T04:11:31.912Z,94.79
2018-04-11T04:12:31.921Z,94.74
2018-04-11T04:13:31.919Z,94.79
2018-04-11T04:14:31.921Z,94.65
2018-04-11T04:15:31.923Z,94.41
2018-04-11T04:16:31.926Z,94.32
2018-04-11T04:17:31.927Z,94.70
2018-04-11T04:18:32.883Z,94.93
2018-04-11T04:19:31.931Z,94.60
2018-04-11T04:20:31.932Z,94.03
2018-04-11T04:21:31.944Z,94.41
2018-04-11T04:22:31.943Z,94.51
2018-04-11T04:23:31.930Z,94.51
2018-04-11T04:24:31.944Z,94.60
2018-04-11T04:25:31.950Z,94.84
2018-04-11T04:26:31.953Z,94.89
2018-04-11T04:27:31.941Z,94.70
2018-04-11T04:28:31.952Z,94.03
2018-04-11T04:29:31.960Z,94.51
2018-04-11T04:30:32.005Z,94.51
2018-04-11T04:31:31.959Z,94.79
2018-04-11T04:32:31.962Z,94.70
2018-04-11T04:33:31.965Z,94.79
2018-04-11T04:34:31.969Z,94.51
2018-04-11T04:35:31.978Z,94.70
2018-04-11T04:36:31.970Z,94.98
2018-04-11T04:37:31.968Z,94.79
2018-04-11T04:38:32.896Z,94.41
2018-04-11T04:39:32.885Z,94.79
2018-04-11T04:40:31.975Z,94.60
2018-04-11T04:41:31.991Z,94.51
2018-04-11T04:42:31.983Z,94.51
2018-04-11T04:43:31.998Z,94.60
2018-04-11T04:44:31.993Z,94.70
2018-04-11T04:45:32.000Z,94.79
2018-04-11T04:46:32.007Z,94.51
2018-04-11T04:47:31.996Z,94.32
2018-04-11T04:48:32.006Z,94.22
2018-04-11T04:49:31.997Z,94.03
2018-04-11T04:50:31.997Z,94.22
2018-04-11T04:51:32.021Z,94.22
2018-04-11T04:52:32.015Z,94.79
2018-04-11T04:53:32.000Z,94.60
2018-04-11T04:54:32.022Z,94.79
2018-04-11T04:55:32.016Z,94.79
2018-04-11T04:56:32.006Z,94.70
2018-04-11T04:57:32.025Z,94.60
2018-04-11T04:58:32.025Z,94.70
2018-04-11T04:59:32.011Z,94.51
2018-04-11T05:00:32.033Z,94.60
2018-04-11T05:01:32.025Z,94.41
2018-04-11T05:02:32.028Z,94.51
2018-04-11T05:03:32.032Z,95.37
2018-04-11T05:04:32.035Z,95.27
2018-04-11T05:05:32.046Z,94.89
2018-04-11T05:06:32.894Z,94.60
2018-04-11T05:07:32.039Z,94.32
2018-04-11T05:10:05.132Z,94.51
2018-04-11T05:11:04.633Z,94.03
2018-04-11T05:12:05.135Z,94.32
2018-04-11T05:13:05.139Z,94.17
2018-04-11T05:14:04.153Z,94.79
2018-04-11T05:15:05.146Z,94.60
2018-04-11T05:16:06.141Z,94.56
2018-04-11T05:17:04.219Z,94.74
2018-04-11T05:18:05.136Z,94.60
2018-04-11T05:19:04.161Z,94.60
2018-04-11T05:20:05.163Z,94.46
2018-04-11T05:21:06.139Z,94.56
2018-04-11T05:22:06.134Z,94.74
2018-04-11T05:23:05.632Z,94.56
2018-04-11T05:24:05.148Z,93.98
2018-04-11T05:25:04.183Z,94.37
2018-04-11T05:26:04.719Z,94.46
2018-04-11T05:27:05.153Z,94.84
2018-04-11T05:28:05.143Z,94.93
2018-04-11T05:29:05.145Z,95.03
2018-04-11T05:30:05.136Z,94.56
2018-04-11T05:31:05.631Z,93.84
2018-04-11T05:32:05.136Z,93.36
2018-04-11T05:33:05.632Z,93.27
2018-04-11T05:34:05.138Z,93.27
2018-04-11T05:35:05.636Z,93.36
2018-04-11T05:36:04.239Z,93.36
2018-04-11T05:37:05.153Z,93.46
2018-04-11T05:38:05.141Z,93.36
2018-04-11T05:39:05.138Z,93.17
2018-04-11T05:40:04.282Z,92.07
2018-04-11T05:41:05.214Z,91.78
2018-04-11T05:42:05.140Z,91.02
2018-04-11T05:43:05.136Z,90.07
2018-04-11T05:44:05.137Z,90.26
2018-04-11T05:45:05.160Z,89.88
2018-04-11T05:46:04.220Z,89.02
2018-04-11T05:47:05.149Z,89.92
2018-04-11T05:48:04.216Z,88.87
2018-04-11T05:49:04.248Z,89.12
2018-04-11T05:50:04.228Z,88.64
2018-04-11T05:51:04.251Z,89.97
2018-04-11T05:52:05.144Z,89.45
2018-04-11T05:53:05.143Z,89.35
2018-04-11T05:54:04.238Z,89.45
2018-04-11T05:55:04.246Z,88.92
2018-04-11T05:56:04.247Z,89.21
2018-04-11T05:57:04.246Z,89.50
2018-04-11T05:58:04.264Z,89.88
2018-04-11T05:59:04.250Z,89.40
2018-04-11T06:00:04.260Z,88.92
2018-04-11T06:01:04.304Z,89.59
2018-04-11T06:02:04.271Z,88.92
2018-04-11T06:03:05.173Z,89.21
2018-04-11T06:04:04.273Z,88.92
2018-04-11T06:05:04.263Z,88.30
2018-04-11T06:06:04.261Z,87.01
2018-04-11T06:07:04.279Z,86.01
2018-04-11T06:08:04.274Z,87.20
2018-04-11T06:09:04.263Z,86.34
2018-04-11T06:10:04.291Z,85.86
2018-04-11T06:11:04.282Z,85.14
2018-04-11T06:12:04.300Z,83.27
2018-04-11T06:13:04.318Z,82.37
2018-04-11T06:14:04.820Z,82.12
2018-04-11T06:15:04.311Z,82.22
2018-04-11T06:16:04.306Z,81.84
2018-04-11T06:17:04.359Z,81.21
2018-04-11T06:18:04.296Z,79.14
2018-04-11T06:19:04.309Z,76.31
2018-04-11T06:20:04.310Z,75.16
2018-04-11T06:21:04.316Z,74.43
2018-04-11T06:22:04.312Z,72.74
2018-04-11T06:23:04.337Z,71.50
2018-04-11T06:24:05.148Z,71.88
2018-04-11T06:25:04.309Z,70.96
2018-04-11T06:26:04.419Z,68.44
2018-04-11T06:27:04.334Z,67.54
2018-04-11T06:28:04.500Z,67.57
2018-04-11T06:29:04.356Z,68.12
2018-04-11T06:30:04.344Z,67.92
2018-04-11T06:31:04.359Z,67.76
2018-04-11T06:32:04.360Z,65.78
2018-04-11T06:33:04.340Z,64.92
2018-04-11T06:34:04.372Z,65.49
2018-04-11T06:35:04.364Z,65.65
2018-04-11T06:36:04.380Z,65.56
2018-04-11T06:37:04.396Z,67.16
2018-04-11T06:38:04.416Z,67.29
2018-04-11T06:39:04.388Z,66.07
2018-04-11T06:40:04.388Z,64.09
2018-04-11T06:41:04.434Z,62.38
2018-04-11T06:42:04.432Z,62.48
2018-04-11T06:43:04.386Z,61.52
2018-04-11T06:44:04.398Z,61.81
2018-04-11T06:45:04.424Z,61.43
2018-04-11T06:46:04.462Z,60.78
2018-04-11T06:47:05.250Z,59.08
2018-04-11T06:48:04.461Z,58.89
2018-04-11T06:49:06.867Z,59.89
2018-04-11T06:50:04.466Z,62.52
2018-04-11T06:51:04.504Z,63.89
2018-04-11T06:52:04.598Z,67.35
2018-04-11T06:53:04.421Z,66.96
2018-04-11T06:54:04.477Z,68.37
2018-04-11T06:55:04.437Z,68.85
2018-04-11T06:56:04.460Z,69.96
2018-04-11T06:57:04.459Z,70.89
2018-04-11T06:58:04.452Z,71.84
2018-04-11T06:59:04.462Z,74.01
2018-04-11T07:00:04.479Z,73.38
2018-04-11T07:01:04.592Z,71.69
2018-04-11T07:02:04.489Z,72.07
2018-04-11T07:03:04.497Z,70.23
2018-04-11T07:04:04.560Z,68.46
2018-04-11T07:05:04.508Z,68.18
2018-04-11T07:06:04.511Z,69.77
2018-04-11T07:07:04.537Z,70.19
2018-04-11T07:08:04.511Z,68.21
2018-04-11T07:09:04.504Z,68.02
2018-04-11T07:10:04.523Z,69.10
2018-04-11T07:11:04.544Z,68.75
2018-04-11T07:12:05.257Z,68.59
2018-04-11T07:13:04.538Z,66.84
2018-04-11T07:14:05.261Z,65.84
2018-04-11T07:15:04.563Z,64.92
2018-04-11T07:16:04.549Z,67.22
2018-04-11T07:17:04.541Z,68.69
2018-04-11T07:18:04.558Z,65.40
2018-04-11T07:19:04.639Z,64.56
2018-04-11T07:20:04.621Z,63.57
2018-04-11T07:21:04.595Z,62.74
2018-04-11T07:22:04.598Z,63.57
2018-04-11T07:23:04.583Z,64.92
2018-04-11T07:24:04.594Z,67.25
2018-04-11T07:25:04.604Z,65.65
2018-04-11T07:26:04.598Z,64.98
2018-04-11T07:27:04.832Z,66.86
2018-04-11T07:28:04.647Z,67.54
2018-04-11T07:29:04.637Z,66.61
2018-04-11T07:30:04.687Z,63.54
2018-04-11T07:31:04.658Z,60.42
2018-04-11T07:32:04.666Z,58.72
2018-04-11T07:33:04.699Z,57.21
2018-04-11T07:34:05.331Z,57.28
2018-04-11T07:37:00.989Z,57.18
2018-04-11T07:37:59.995Z,57.57
2018-04-11T07:40:31.633Z,59.69
2018-04-11T07:41:31.614Z,59.53
2018-04-11T07:42:31.616Z,59.82
2018-04-11T07:43:31.637Z,59.82
2018-04-11T07:44:31.816Z,60.04
2018-04-11T07:45:31.649Z,58.95
2018-04-11T07:46:31.659Z,61.04
2018-04-11T07:47:32.156Z,60.59
2018-04-11T07:48:31.637Z,59.01
2018-04-11T07:49:31.638Z,57.14
2018-04-11T07:50:31.640Z,56.63
2018-04-11T07:51:31.685Z,56.76
2018-04-11T07:52:31.709Z,56.12
2018-04-11T07:53:31.762Z,57.37
2018-04-11T07:54:32.839Z,58.72
2018-04-11T07:55:31.685Z,58.24
2018-04-11T07:56:31.725Z,59.02
2018-04-11T07:57:31.713Z,59.01
2018-04-11T07:58:31.762Z,59.79
2018-04-11T07:59:31.778Z,62.00
2018-04-11T08:00:31.768Z,62.29
2018-04-11T08:01:31.764Z,61.46
2018-04-11T08:02:31.767Z,60.63
2018-04-11T08:03:31.817Z,62.68
2018-04-11T08:04:31.792Z,60.37
2018-04-11T08:05:31.774Z,60.49
2018-04-11T08:06:31.804Z,58.47
2018-04-11T08:07:31.807Z,56.66
2018-04-11T08:08:31.837Z,53.99
2018-04-11T08:09:31.838Z,52.72
2018-04-11T08:10:32.568Z,52.04
2018-04-11T08:11:31.889Z,51.63
2018-04-11T08:12:31.842Z,51.73
2018-04-11T08:13:31.851Z,52.83
2018-04-11T08:14:31.881Z,52.79
2018-04-11T08:15:31.958Z,52.98
2018-04-11T08:16:31.905Z,52.25
2018-04-11T08:17:31.895Z,54.25
2018-04-11T08:18:31.895Z,54.14
2018-04-11T08:19:31.994Z,53.25
2018-04-11T08:20:31.923Z,53.67
2018-04-11T08:21:31.942Z,53.15
2018-04-11T08:22:31.965Z,53.61
2018-04-11T08:23:32.009Z,53.25
2018-04-11T08:24:32.485Z,53.96
2018-04-11T08:25:32.585Z,56.37
2018-04-11T08:26:32.532Z,54.66
2018-04-11T08:27:34.321Z,53.63
2018-04-11T08:28:32.136Z,53.44
2018-04-11T08:29:32.014Z,53.25
2018-04-11T08:30:32.080Z,53.22
2018-04-11T08:31:32.574Z,54.44
2018-04-11T08:32:32.064Z,55.44
2018-04-11T08:33:32.078Z,54.50
2018-04-11T08:34:32.070Z,54.47
2018-04-11T08:35:32.095Z,54.60
2018-04-11T08:36:32.116Z,51.68
2018-04-11T08:37:32.100Z,49.49
2018-04-11T08:38:32.114Z,49.75
2018-04-11T08:39:32.140Z,48.83
2018-04-11T08:40:32.378Z,49.82
2018-04-11T08:41:32.218Z,50.79
2018-04-11T08:42:32.754Z,51.07
2018-04-11T08:43:32.201Z,51.82
2018-04-11T08:44:32.257Z,51.23
2018-04-11T08:45:32.244Z,49.60
2018-04-11T08:46:32.208Z,47.58
2018-04-11T08:47:32.318Z,49.00
2018-04-11T08:48:35.483Z,50.01
2018-04-11T08:49:32.533Z,49.85
2018-04-11T08:50:32.613Z,49.75
2018-04-11T08:51:32.385Z,50.50
2018-04-11T08:52:32.405Z,51.77
2018-04-11T08:53:32.373Z,53.41
2018-04-11T08:54:32.346Z,52.69
2018-04-11T08:55:32.489Z,52.06
2018-04-11T08:56:32.369Z,53.19
2018-04-11T08:57:33.106Z,54.64
2018-04-11T08:58:32.502Z,55.02
2018-04-11T08:59:32.619Z,54.11
2018-04-11T09:00:32.601Z,53.15
2018-04-11T09:01:32.472Z,53.61
2018-04-11T09:02:32.537Z,53.61
2018-04-11T09:03:32.537Z,52.31
2018-04-11T09:04:32.702Z,51.53
2018-04-11T09:05:32.627Z,51.87
2018-04-11T09:06:32.537Z,54.16
2018-04-11T09:07:32.683Z,54.79
2018-04-11T09:08:32.668Z,53.37
2018-04-11T09:09:32.811Z,51.53
2018-04-11T09:10:33.117Z,51.92
2018-04-11T09:11:32.784Z,53.03
2018-04-11T09:12:33.110Z,53.17
2018-04-11T09:13:32.643Z,51.29
2018-04-11T09:14:32.668Z,49.85
2018-04-11T09:15:32.728Z,49.55
2018-04-11T09:16:32.838Z,49.55
2018-04-11T09:17:32.799Z,48.71
2018-04-11T09:18:33.466Z,48.64
2018-04-11T09:19:32.763Z,48.74
2018-04-11T09:20:32.836Z,48.20
2018-04-11T09:21:32.702Z,46.26
2018-04-11T09:22:32.821Z,46.46
2018-04-11T09:23:32.965Z,46.73
2018-04-11T09:24:32.854Z,46.73
2018-04-11T09:25:32.823Z,47.41
2018-04-11T09:26:32.902Z,47.26
2018-04-11T09:27:33.619Z,48.81
2018-04-11T09:28:32.789Z,49.19
2018-04-11T09:29:33.622Z,48.86
2018-04-11T09:30:32.882Z,50.04
2018-04-11T09:31:32.822Z,50.11
2018-04-11T09:32:32.994Z,51.95
2018-04-11T09:33:32.976Z,51.85
2018-04-11T09:34:33.608Z,51.29
2018-04-11T09:35:33.525Z,50.43
2018-04-11T09:36:33.127Z,50.79
2018-04-11T09:37:33.055Z,50.81
2018-04-11T09:38:32.977Z,49.58
2018-04-11T09:39:33.019Z,48.54
2018-04-11T09:40:33.335Z,47.69
2018-04-11T09:41:33.149Z,48.08
2018-04-11T09:42:33.624Z,49.32
2018-04-11T09:43:33.158Z,48.93
2018-04-11T09:45:33.123Z,47.77
2018-04-11T09:46:33.187Z,50.11
2018-04-11T09:47:33.152Z,52.33
2018-04-11T09:48:33.171Z,51.56
2018-04-11T09:49:33.219Z,51.10
2018-04-11T09:50:33.339Z,50.98
2018-04-11T09:51:33.185Z,53.27
2018-04-11T09:52:33.245Z,51.49
2018-04-11T09:53:33.247Z,50.81
2018-04-11T09:54:33.222Z,49.70
2018-04-11T09:55:33.923Z,49.12
2018-04-11T09:56:33.433Z,49.73
2018-04-11T09:57:34.201Z,48.37
2018-04-11T09:58:33.804Z,47.60
2018-04-11T09:59:33.391Z,48.64
2018-04-11T10:00:33.309Z,49.17
2018-04-11T10:01:33.344Z,50.79
2018-04-11T10:02:33.505Z,51.63
2018-04-11T10:03:33.343Z,51.59
2018-04-11T10:04:33.365Z,50.91
2018-04-11T10:05:33.389Z,49.60
2018-04-11T10:06:34.142Z,49.12
2018-04-11T10:07:35.147Z,47.55
2018-04-11T10:08:33.454Z,46.83
2018-04-11T10:09:33.487Z,47.43
2018-04-11T10:10:33.471Z,47.74
2018-04-11T10:11:33.595Z,51.05
2018-04-11T10:12:33.524Z,53.73
2018-04-11T10:13:33.505Z,53.92
2018-04-11T10:14:33.600Z,52.72
2018-04-11T10:15:33.556Z,52.91
2018-04-11T10:16:33.563Z,51.78
2018-04-11T10:17:33.668Z,51.01
2018-04-11T10:18:33.615Z,49.75
2018-04-11T10:19:34.150Z,46.60
2018-04-11T10:20:33.606Z,46.09
2018-04-11T10:21:33.709Z,45.54
2018-04-11T10:22:33.667Z,45.61
2018-04-11T10:23:33.709Z,46.25
2018-04-11T10:24:33.680Z,47.81
2018-04-11T10:25:33.690Z,49.60
2018-04-11T10:26:33.751Z,49.07
2018-04-11T10:27:33.813Z,51.75
2018-04-11T10:28:33.826Z,52.28
2018-04-11T10:29:34.672Z,53.30
2018-04-11T10:30:33.817Z,51.68
2018-04-11T10:31:34.669Z,51.53
2018-04-11T10:32:33.919Z,54.31
2018-04-11T10:33:33.894Z,53.75
2018-04-11T10:34:33.875Z,55.18
2018-04-11T10:35:33.953Z,54.14
2018-04-11T10:36:33.984Z,54.66
2018-04-11T10:37:33.939Z,54.31
2018-04-11T10:38:33.940Z,55.82
2018-04-11T10:39:34.027Z,57.60
2018-04-11T10:40:33.986Z,59.49
2018-04-11T10:41:34.067Z,61.65
2018-04-11T10:42:33.973Z,62.03
2018-04-11T10:43:34.102Z,62.80
2018-04-11T10:44:34.208Z,63.15
2018-04-11T10:45:34.049Z,63.54
2018-04-11T10:46:34.668Z,63.99
2018-04-11T10:47:34.082Z,64.31
2018-04-11T10:48:34.076Z,64.22
2018-04-11T10:49:34.056Z,64.95
2018-04-11T10:50:34.178Z,65.17
2018-04-11T10:51:34.129Z,64.89
2018-04-11T10:52:34.177Z,65.08
2018-04-11T10:53:34.254Z,64.89
2018-04-11T10:54:34.215Z,64.12
2018-04-11T10:57:46.613Z,63.57
